Time;durP1;ratioP1;P1;durP2;ratioP2;P2;SDS_P1;SDS_P2;PMS_P1;PMS_P2;Temp;Humidity;BMP_temperature;BMP_pressure;BME280_temperature;BME280_humidity;BME280_pressure;Samples;Min_cycle;Max_cycle;Signal;HPM_P1;HPM_P2
2022/03/27 00:02:09;;;;;;;59.20;25.63;;;6.90;94.20;;;;;;5023202;28;20440;-83
2022/03/27 00:04:35;;;;;;;60.40;26.37;;;6.90;94.60;;;;;;5029194;28;20104;-83
2022/03/27 00:07:00;;;;;;;61.40;24.90;;;6.90;94.80;;;;;;5031036;28;20033;-83
2022/03/27 01:11:36;;;;;;;47.20;21.17;;;6.90;95.90;;;;;;5117003;22;20410;-84
2022/03/27 01:14:02;;;;;;;48.28;22.38;;;7.00;95.90;;;;;;5015761;28;20477;-84
2022/03/27 01:16:43;;;;;;;46.70;19.60;;;7.10;96.30;;;;;;5002696;28;20052;-83
2022/03/27 01:19:11;;;;;;;47.60;20.13;;;7.10;95.80;;;;;;5033477;28;20030;-83
2022/03/27 01:21:42;;;;;;;48.10;20.60;;;7.00;95.70;;;;;;5032615;28;20022;-83
2022/03/27 01:24:09;;;;;;;50.43;20.97;;;6.90;95.90;;;;;;5033943;28;20021;-83
2022/03/27 01:26:36;;;;;;;53.10;20.00;;;7.00;96.10;;;;;;5033447;28;20033;-83
2022/03/27 01:29:03;;;;;;;54.43;20.73;;;6.90;96.10;;;;;;5033946;28;20540;-83
2022/03/27 01:31:28;;;;;;;44.07;18.67;;;6.90;96.60;;;;;;5033367;28;20071;-83
2022/03/27 01:33:54;;;;;;;41.63;19.77;;;6.90;96.20;;;;;;5033916;28;20039;-83
2022/03/27 01:36:25;;;;;;;46.60;19.27;;;6.80;96.00;;;;;;5033563;28;20029;-83
2022/03/27 01:38:53;;;;;;;48.93;21.77;;;6.90;96.80;;;;;;5021603;28;20032;-83
2022/03/27 01:41:19;;;;;;;44.50;19.43;;;6.80;96.60;;;;;;5028996;28;20385;-83
2022/03/27 01:43:45;;;;;;;54.72;20.25;;;6.80;96.60;;;;;;5031943;28;20113;-83
2022/03/27 01:46:11;;;;;;;48.83;21.03;;;6.80;96.60;;;;;;5033529;28;20028;-83
2022/03/27 01:48:37;;;;;;;43.57;20.17;;;6.80;96.80;;;;;;5033491;28;20029;-83
2022/03/27 01:51:03;;;;;;;44.47;20.60;;;6.70;96.70;;;;;;5033341;28;20025;-83
2022/03/27 01:53:29;;;;;;;42.30;19.03;;;6.70;96.90;;;;;;5033507;28;20077;-83
2022/03/27 01:55:54;;;;;;;48.10;19.00;;;6.80;96.80;;;;;;5032480;28;20035;-83
2022/03/27 01:58:21;;;;;;;39.30;18.33;;;6.70;96.80;;;;;;5033039;28;20053;-83
2022/03/27 02:00:47;;;;;;;39.63;18.27;;;6.60;96.70;;;;;;5033737;28;20028;-83
2022/03/27 02:03:12;;;;;;;37.88;17.33;;;6.60;96.70;;;;;;5033124;28;20104;-83
2022/03/27 02:05:38;;;;;;;38.57;17.07;;;6.50;96.90;;;;;;5033106;28;20041;-83
2022/03/27 02:08:04;;;;;;;42.33;17.40;;;6.70;97.10;;;;;;5033267;28;20065;-83
2022/03/27 03:10:03;;;;;;;30.70;13.20;;;6.40;97.30;;;;;;5886408;22;20538;-83
2022/03/27 03:12:29;;;;;;;29.63;13.10;;;6.40;97.70;;;;;;4993821;28;20031;-83
2022/03/27 03:14:56;;;;;;;32.97;14.17;;;6.30;97.70;;;;;;4993945;28;20149;-83
2022/03/27 03:17:25;;;;;;;39.37;12.70;;;6.30;98.00;;;;;;4993664;28;20026;-83
2022/03/27 03:19:52;;;;;;;26.40;12.07;;;6.30;97.70;;;;;;4993951;28;20027;-83
2022/03/27 03:22:18;;;;;;;24.80;12.33;;;6.30;97.90;;;;;;4993656;28;20019;-83
2022/03/27 03:24:44;;;;;;;25.40;12.63;;;6.40;98.10;;;;;;4993798;28;20042;-82
2022/03/27 03:27:10;;;;;;;32.30;13.60;;;6.40;97.90;;;;;;4993082;28;20038;-83
2022/03/27 03:29:36;;;;;;;28.50;12.80;;;6.50;98.20;;;;;;4993495;28;20022;-83
2022/03/27 03:32:02;;;;;;;31.17;12.73;;;6.40;98.10;;;;;;4992806;28;20041;-83
2022/03/27 03:34:28;;;;;;;33.00;12.97;;;6.40;97.90;;;;;;4993641;28;20105;-83
2022/03/27 03:36:53;;;;;;;28.93;12.87;;;6.30;97.90;;;;;;4993085;28;20102;-83
2022/03/27 03:39:19;;;;;;;31.50;12.83;;;6.30;98.30;;;;;;4991936;28;20049;-83
2022/03/27 03:41:45;;;;;;;24.83;11.43;;;6.30;98.10;;;;;;4993295;28;20018;-83
2022/03/27 03:44:11;;;;;;;31.03;12.53;;;6.40;98.30;;;;;;4993395;28;20030;-83
2022/03/27 03:46:36;;;;;;;25.17;11.93;;;6.30;98.30;;;;;;4993406;28;20074;-83
2022/03/27 03:49:06;;;;;;;23.57;10.87;;;6.40;98.40;;;;;;4993334;28;20022;-83
2022/03/27 03:51:35;;;;;;;28.40;11.70;;;6.30;98.10;;;;;;4993289;28;20560;-83
2022/03/27 03:54:02;;;;;;;29.00;12.00;;;6.30;98.40;;;;;;4993152;28;20494;-83
2022/03/27 03:56:28;;;;;;;32.17;13.07;;;6.30;98.40;;;;;;4992658;28;20023;-83
2022/03/27 03:58:54;;;;;;;33.40;11.73;;;6.30;98.20;;;;;;4992736;28;20030;-83
2022/03/27 04:01:19;;;;;;;26.80;11.40;;;6.30;98.70;;;;;;4993375;28;20033;-83
2022/03/27 04:03:45;;;;;;;21.90;11.30;;;6.20;98.40;;;;;;4993061;28;20522;-83
2022/03/27 04:06:11;;;;;;;26.33;10.90;;;6.30;98.60;;;;;;4992427;28;20018;-83
2022/03/27 04:08:36;;;;;;;27.13;11.80;;;6.20;98.40;;;;;;4992644;28;20034;-83
2022/03/27 05:10:36;;;;;;;23.07;8.00;;;6.00;99.90;;;;;;5682746;22;20054;-83
2022/03/27 05:13:02;;;;;;;19.87;7.87;;;6.00;99.90;;;;;;4972846;28;20031;-83
2022/03/27 05:15:28;;;;;;;18.17;7.57;;;6.00;99.90;;;;;;4991288;28;20471;-83
2022/03/27 05:17:57;;;;;;;19.27;7.67;;;6.00;99.90;;;;;;4991384;28;20022;-83
2022/03/27 05:20:23;;;;;;;15.37;7.67;;;5.90;99.90;;;;;;4989833;28;20414;-83
2022/03/27 05:22:49;;;;;;;20.53;7.37;;;6.00;99.90;;;;;;4991079;28;20110;-82
2022/03/27 05:25:16;;;;;;;19.43;8.20;;;6.00;99.90;;;;;;4990701;28;20562;-83
2022/03/27 05:27:53;;;;;;;19.93;8.53;;;6.00;99.90;;;;;;4991010;28;20434;-83
2022/03/27 05:30:24;;;;;;;23.97;7.13;;;6.10;99.90;;;;;;4990242;28;20058;-83
2022/03/27 05:32:51;;;;;;;21.20;8.73;;;6.10;99.90;;;;;;4990811;28;20042;-83
2022/03/27 05:35:18;;;;;;;24.30;8.90;;;6.00;99.90;;;;;;4990787;28;20073;-83
2022/03/27 05:37:45;;;;;;;20.20;8.93;;;6.10;99.90;;;;;;4977369;28;20030;-82
2022/03/27 05:40:13;;;;;;;27.60;9.23;;;6.00;99.90;;;;;;4988382;28;20405;-83
2022/03/27 05:42:39;;;;;;;24.27;9.97;;;5.90;99.90;;;;;;4987368;28;20030;-82
2022/03/27 05:45:07;;;;;;;30.03;11.10;;;5.90;99.90;;;;;;4991139;28;20026;-82
2022/03/27 05:47:34;;;;;;;25.03;9.67;;;5.90;99.90;;;;;;4990710;28;20025;-82
2022/03/27 05:50:00;;;;;;;36.00;12.17;;;5.90;99.90;;;;;;4990806;28;20061;-83
2022/03/27 05:52:26;;;;;;;34.03;11.13;;;6.00;99.90;;;;;;4991149;28;20041;-82
2022/03/27 05:54:53;;;;;;;25.30;10.77;;;5.90;99.90;;;;;;4991427;28;20050;-82
2022/03/27 05:57:19;;;;;;;28.23;10.67;;;5.90;99.90;;;;;;4994170;28;20026;-82
2022/03/27 05:59:45;;;;;;;38.37;12.40;;;6.00;99.90;;;;;;4994588;28;20022;-83
2022/03/27 06:02:12;;;;;;;32.90;13.00;;;6.10;99.90;;;;;;4993918;28;20026;-82
2022/03/27 06:04:38;;;;;;;34.50;12.27;;;6.10;99.90;;;;;;4994000;28;20080;-83
2022/03/27 06:07:04;;;;;;;37.27;13.67;;;6.10;99.90;;;;;;4993849;28;20556;-83
2022/03/27 06:09:30;;;;;;;34.70;13.27;;;6.20;99.90;;;;;;4994009;28;20023;-82
2022/03/27 06:11:56;;;;;;;39.33;15.00;;;6.10;99.90;;;;;;4987329;28;20060;-83
2022/03/27 06:14:22;;;;;;;33.60;13.13;;;6.20;99.90;;;;;;4994071;28;20386;-82
2022/03/27 06:16:48;;;;;;;38.53;13.53;;;6.30;99.90;;;;;;4993990;28;20097;-83
2022/03/27 06:19:14;;;;;;;37.73;14.27;;;6.30;99.90;;;;;;4993944;28;20503;-82
2022/03/27 06:21:39;;;;;;;42.03;14.87;;;6.40;99.90;;;;;;4993919;28;20018;-82
2022/03/27 06:24:06;;;;;;;39.27;14.83;;;6.40;99.90;;;;;;4993923;28;20390;-83
2022/03/27 06:26:31;;;;;;;52.60;16.57;;;6.40;99.90;;;;;;4993269;28;20025;-83
2022/03/27 06:28:57;;;;;;;49.27;17.73;;;6.60;99.90;;;;;;4993678;28;20113;-83
2022/03/27 06:31:23;;;;;;;48.03;16.13;;;6.70;99.90;;;;;;4993795;28;20022;-82
2022/03/27 06:33:48;;;;;;;51.07;18.00;;;6.80;99.90;;;;;;4993706;28;20026;-82
2022/03/27 06:36:14;;;;;;;52.97;16.40;;;6.90;99.90;;;;;;4992019;28;20019;-83
2022/03/27 06:38:40;;;;;;;47.57;16.93;;;7.00;99.90;;;;;;4994038;28;20022;-83
2022/03/27 06:41:06;;;;;;;47.03;16.27;;;7.10;99.90;;;;;;4974424;23;20078;-78
2022/03/27 06:43:33;;;;;;;51.80;18.00;;;7.20;99.90;;;;;;4919682;29;20028;-78
2022/03/27 06:45:59;;;;;;;45.00;15.48;;;7.30;99.90;;;;;;4936034;29;20020;-78
2022/03/27 06:48:25;;;;;;;47.50;16.52;;;7.40;99.90;;;;;;4936151;29;20096;-79
2022/03/27 06:50:50;;;;;;;50.50;17.87;;;7.50;99.90;;;;;;4935903;29;20028;-78
2022/03/27 06:53:20;;;;;;;45.73;15.83;;;7.60;99.90;;;;;;4936307;29;20404;-78
2022/03/27 06:55:47;;;;;;;48.30;17.55;;;7.60;99.90;;;;;;4919076;29;20358;-78
2022/03/27 06:58:13;;;;;;;41.57;15.03;;;7.80;99.90;;;;;;4936132;29;20035;-78
2022/03/27 07:03:23;;;;;;;46.00;15.35;;;7.90;99.90;;;;;;4940749;29;20030;-78
2022/03/27 07:05:49;;;;;;;49.60;18.13;;;8.00;99.50;;;;;;4942454;28;20027;-78
2022/03/27 07:08:22;;;;;;;41.97;15.55;;;8.10;99.60;;;;;;4935697;29;20044;-78
2022/03/27 07:10:49;;;;;;;41.55;15.50;;;8.20;99.50;;;;;;4923985;29;20029;-78
2022/03/27 07:13:17;;;;;;;37.75;14.77;;;8.30;99.30;;;;;;4935897;28;20051;-78
2022/03/27 07:15:44;;;;;;;37.55;16.35;;;8.30;99.10;;;;;;4919054;29;20035;-78
2022/03/27 07:18:11;;;;;;;43.85;15.63;;;8.40;99.30;;;;;;4935833;29;20123;-79
2022/03/27 07:20:44;;;;;;;38.80;15.23;;;8.60;99.00;;;;;;4935721;29;20078;-78
2022/03/27 07:23:13;;;;;;;37.83;16.00;;;8.80;98.90;;;;;;4936004;29;20028;-78
2022/03/27 07:25:41;;;;;;;35.03;14.07;;;8.90;98.30;;;;;;4935252;29;20106;-78
2022/03/27 07:28:08;;;;;;;36.72;15.50;;;9.10;98.30;;;;;;4935454;29;20091;-78
2022/03/27 07:30:35;;;;;;;36.58;15.27;;;9.10;97.60;;;;;;4935489;29;20035;-78
2022/03/27 07:33:02;;;;;;;35.33;15.98;;;9.30;97.50;;;;;;4935615;29;20035;-79
2022/03/27 07:35:30;;;;;;;31.42;14.20;;;9.20;97.50;;;;;;4918032;29;20031;-78
2022/03/27 07:37:56;;;;;;;31.42;14.65;;;9.40;97.40;;;;;;4935106;29;20035;-78
2022/03/27 08:39:55;;;;;;;13.60;8.00;;;12.00;88.30;;;;;;6048185;23;20005;-78
2022/03/27 08:42:21;;;;;;;14.02;7.63;;;12.20;89.00;;;;;;4970121;28;20399;-78
2022/03/27 08:44:47;;;;;;;10.52;7.00;;;12.40;88.30;;;;;;4971688;28;20530;-78
2022/03/27 08:47:24;;;;;;;13.20;7.55;;;12.60;85.70;;;;;;4959920;28;20054;-78
2022/03/27 08:50:11;;;;;;;11.25;6.38;;;12.80;85.10;;;;;;4969829;28;20061;-78
2022/03/27 08:52:59;;;;;;;9.65;5.90;;;13.40;80.90;;;;;;4970130;28;20042;-78
2022/03/27 08:55:39;;;;;;;8.82;5.68;;;13.80;80.10;;;;;;4966934;28;20462;-79
2022/03/27 08:58:08;;;;;;;6.90;5.10;;;14.30;78.70;;;;;;4969121;28;20037;-78
2022/03/27 09:00:35;;;;;;;7.82;4.95;;;14.70;76.00;;;;;;4971136;28;20042;-78
2022/03/27 09:03:02;;;;;;;10.18;5.18;;;15.00;74.00;;;;;;4964936;28;20034;-78
2022/03/27 09:05:29;;;;;;;7.65;5.22;;;14.30;72.20;;;;;;4971455;28;20037;-77
2022/03/27 09:07:56;;;;;;;10.07;5.68;;;13.60;76.90;;;;;;4970602;28;20042;-77
2022/03/27 09:10:24;;;;;;;8.05;5.28;;;13.30;77.10;;;;;;4972081;28;20026;-77
2022/03/27 09:12:51;;;;;;;9.30;5.50;;;13.00;79.00;;;;;;4972631;28;20739;-78
2022/03/27 09:15:19;;;;;;;9.68;5.82;;;12.60;80.60;;;;;;4972871;28;20063;-77
2022/03/27 09:18:07;;;;;;;7.85;5.50;;;12.70;81.90;;;;;;4971222;28;20131;-77
2022/03/27 09:20:47;;;;;;;8.57;5.35;;;13.50;80.60;;;;;;4971956;28;20046;-77
2022/03/27 09:23:27;;;;;;;7.63;5.32;;;15.00;76.10;;;;;;4971734;28;20069;-78
2022/03/27 09:25:59;;;;;;;6.38;4.82;;;15.50;72.20;;;;;;4965023;28;20026;-78
2022/03/27 09:28:39;;;;;;;7.38;5.18;;;16.80;69.80;;;;;;4972245;28;20125;-77
2022/03/27 09:31:14;;;;;;;8.60;5.55;;;16.70;67.50;;;;;;4975968;28;20026;-78
2022/03/27 09:33:51;;;;;;;8.57;5.18;;;15.80;66.40;;;;;;4975957;28;20033;-78
2022/03/27 09:36:21;;;;;;;11.43;5.45;;;15.50;70.30;;;;;;4975804;28;20446;-78
2022/03/27 09:39:26;;;;;;;8.98;5.55;;;16.50;68.50;;;;;;4975854;28;20023;-78
2022/03/27 10:41:33;;;;;;;10.40;4.60;;;24.50;40.70;;;;;;5426078;22;20621;-75
2022/03/27 10:44:17;;;;;;;7.18;4.63;;;25.60;39.70;;;;;;4995189;28;20018;-76
2022/03/27 10:46:46;;;;;;;6.43;4.53;;;26.50;38.00;;;;;;4987885;28;20026;-76
2022/03/27 10:49:16;;;;;;;6.55;4.32;;;25.40;37.80;;;;;;4976683;28;20384;-79
2022/03/27 10:51:45;;;;;;;7.13;4.35;;;26.10;39.80;;;;;;4974723;28;20384;-78
2022/03/27 10:54:18;;;;;;;7.07;4.50;;;25.90;37.20;;;;;;4972938;28;20077;-78
2022/03/27 10:56:48;;;;;;;7.50;4.07;;;25.50;40.30;;;;;;4967439;28;20043;-78
2022/03/27 10:59:26;;;;;;;5.60;3.97;;;26.60;38.60;;;;;;4972888;28;20159;-79
2022/03/27 11:02:02;;;;;;;5.28;4.30;;;27.60;36.30;;;;;;4974785;28;20114;-78
2022/03/27 11:04:34;;;;;;;5.82;4.80;;;28.00;36.00;;;;;;4974357;28;20071;-79
2022/03/27 11:07:21;;;;;;;6.90;4.47;;;27.40;34.10;;;;;;4977087;28;20034;-78
2022/03/27 11:09:47;;;;;;;5.18;3.70;;;27.70;33.70;;;;;;4973536;28;20193;-78
2022/03/27 11:12:25;;;;;;;5.25;4.35;;;26.50;37.20;;;;;;4973232;28;20503;-78
2022/03/27 11:15:01;;;;;;;4.75;3.40;;;26.20;37.30;;;;;;4967703;28;20101;-78
2022/03/27 11:17:34;;;;;;;4.80;3.55;;;27.40;36.40;;;;;;4973994;28;20015;-78
2022/03/27 11:20:05;;;;;;;4.90;3.55;;;28.00;33.60;;;;;;4976373;28;20030;-77
2022/03/27 11:22:53;;;;;;;5.57;3.80;;;27.30;34.20;;;;;;4969446;28;20089;-75
2022/03/27 11:25:38;;;;;;;5.18;3.42;;;27.70;33.60;;;;;;4973759;28;20027;-76
2022/03/27 11:28:07;;;;;;;5.60;3.60;;;28.20;34.10;;;;;;4980200;28;20526;-76
2022/03/27 11:30:56;;;;;;;4.93;4.00;;;28.60;33.70;;;;;;4973789;28;20076;-77
2022/03/27 11:33:29;;;;;;;7.75;4.10;;;28.10;34.50;;;;;;4962274;28;20086;-77
2022/03/27 11:36:00;;;;;;;6.30;3.83;;;27.80;34.40;;;;;;4973802;28;20023;-77
2022/03/27 11:38:28;;;;;;;6.07;4.35;;;27.30;33.40;;;;;;4969676;28;20027;-78
2022/03/27 12:41:45;;;;;;;8.30;5.22;;;29.70;31.50;;;;;;5249510;23;20055;-82
2022/03/27 12:44:11;;;;;;;5.45;4.50;;;29.80;29.40;;;;;;4917934;29;20024;-76
2022/03/27 12:46:37;;;;;;;5.90;4.32;;;30.10;30.40;;;;;;4913421;29;20366;-79
2022/03/27 12:49:06;;;;;;;6.03;4.72;;;30.30;30.00;;;;;;4914624;29;20031;-77
2022/03/27 12:51:32;;;;;;;7.13;5.20;;;30.60;30.00;;;;;;4909624;29;20087;-77
2022/03/27 12:54:03;;;;;;;6.88;4.53;;;29.90;31.00;;;;;;4913056;29;20392;-75
2022/03/27 12:56:30;;;;;;;5.75;4.80;;;30.70;29.60;;;;;;4913143;29;20106;-75
2022/03/27 12:58:56;;;;;;;6.00;4.72;;;31.20;30.80;;;;;;4914944;29;20044;-77
2022/03/27 13:01:23;;;;;;;7.18;4.30;;;30.70;30.30;;;;;;4914570;29;20036;-76
2022/03/27 13:04:06;;;;;;;7.00;4.30;;;31.80;29.20;;;;;;4916342;29;20024;-76
2022/03/27 13:06:43;;;;;;;5.22;4.53;;;29.60;29.40;;;;;;4919470;29;20020;-76
2022/03/27 13:09:10;;;;;;;7.15;4.55;;;30.00;29.90;;;;;;4919228;29;20075;-76
2022/03/27 13:11:40;;;;;;;5.43;4.65;;;30.40;30.70;;;;;;4918483;29;20422;-75
2022/03/27 13:14:07;;;;;;;7.88;4.78;;;29.20;29.60;;;;;;4918505;29;20028;-75
2022/03/27 13:16:41;;;;;;;6.93;4.40;;;29.50;31.80;;;;;;4925432;29;20023;-75
2022/03/27 13:19:14;;;;;;;6.13;4.95;;;30.30;29.20;;;;;;4918987;29;20362;-76
2022/03/27 13:21:55;;;;;;;6.75;4.43;;;30.30;29.50;;;;;;4919114;29;20020;-75
2022/03/27 13:24:22;;;;;;;6.25;4.43;;;30.10;29.40;;;;;;4918787;29;20035;-76
2022/03/27 13:26:53;;;;;;;7.03;5.00;;;30.70;28.50;;;;;;4917808;29;20016;-76
2022/03/27 13:29:20;;;;;;;6.85;4.60;;;31.10;30.50;;;;;;4912062;29;20032;-76
2022/03/27 13:31:47;;;;;;;8.43;5.10;;;32.10;27.40;;;;;;4918984;29;20055;-76
2022/03/27 13:34:13;;;;;;;8.43;5.35;;;31.70;28.80;;;;;;4918722;29;20020;-75
2022/03/27 13:36:42;;;;;;;6.50;4.80;;;30.50;29.60;;;;;;4916669;29;20020;-76
2022/03/27 13:39:09;;;;;;;6.10;4.28;;;30.80;30.00;;;;;;4916741;29;20034;-76
2022/03/27 13:44:25;;;;;;;5.90;4.05;;;31.30;29.00;;;;;;4918134;29;20158;-75
2022/03/27 13:46:51;;;;;;;7.78;4.90;;;29.80;28.90;;;;;;4917187;29;20649;-75
2022/03/27 13:49:18;;;;;;;5.82;3.90;;;29.10;30.00;;;;;;4912855;29;20577;-77
2022/03/27 13:51:44;;;;;;;5.38;4.55;;;31.00;31.30;;;;;;4924790;29;21543;-75
2022/03/27 13:54:11;;;;;;;8.20;4.88;;;31.00;28.70;;;;;;4925534;29;20027;-76
2022/03/27 13:56:39;;;;;;;4.45;3.63;;;30.00;29.00;;;;;;4917301;29;20021;-75
2022/03/27 13:59:08;;;;;;;4.85;3.92;;;30.60;30.10;;;;;;4917709;29;20062;-76
2022/03/27 14:01:39;;;;;;;7.90;4.15;;;30.60;28.70;;;;;;4900979;29;20125;-75
2022/03/27 14:04:06;;;;;;;12.32;4.43;;;30.70;28.90;;;;;;4917909;29;20024;-78
2022/03/27 14:06:33;;;;;;;4.63;3.58;;;31.40;28.40;;;;;;4911321;29;20027;-77
2022/03/27 14:08:59;;;;;;;5.85;4.05;;;32.10;28.50;;;;;;4918213;29;20027;-76
2022/03/27 15:10:58;;;;;;;5.60;3.50;;;27.20;33.50;;;;;;5702792;23;20044;-81
2022/03/27 15:13:25;;;;;;;5.38;3.55;;;27.60;33.90;;;;;;4934917;29;20118;-81
2022/03/27 15:15:52;;;;;;;6.13;3.53;;;27.60;33.60;;;;;;4934691;29;20012;-82
2022/03/27 15:18:18;;;;;;;4.47;3.22;;;28.40;32.70;;;;;;4934593;29;20059;-81
2022/03/27 15:20:43;;;;;;;4.15;3.53;;;27.70;32.90;;;;;;4934740;29;20495;-81
2022/03/27 15:23:10;;;;;;;5.85;3.35;;;27.30;33.20;;;;;;4934623;29;20495;-81
2022/03/27 15:25:36;;;;;;;3.17;2.88;;;26.60;34.40;;;;;;4928258;29;20469;-81
2022/03/27 15:28:02;;;;;;;4.22;3.17;;;27.50;33.30;;;;;;4933445;29;20107;-82
2022/03/27 15:30:28;;;;;;;4.95;3.05;;;26.40;35.00;;;;;;4934740;29;20027;-81
2022/03/27 15:32:54;;;;;;;4.10;3.30;;;26.10;35.00;;;;;;4934624;29;20147;-81
2022/03/27 15:35:20;;;;;;;3.17;2.70;;;25.30;36.70;;;;;;4917286;29;20090;-81
2022/03/27 15:37:49;;;;;;;3.55;3.03;;;25.20;38.00;;;;;;4934292;29;20036;-81
2022/03/27 15:40:18;;;;;;;3.90;2.80;;;24.90;38.00;;;;;;4917266;29;20039;-81
2022/03/27 15:42:45;;;;;;;4.78;3.30;;;24.00;39.40;;;;;;4934217;29;20070;-84
2022/03/27 15:45:13;;;;;;;3.33;3.03;;;23.90;40.50;;;;;;4934621;29;20024;-84
2022/03/27 15:47:39;;;;;;;5.97;3.42;;;24.30;40.00;;;;;;4934058;29;20095;-84
2022/03/27 15:50:05;;;;;;;5.30;3.30;;;24.50;40.70;;;;;;4916687;29;20445;-83
2022/03/27 15:52:32;;;;;;;4.82;3.55;;;23.90;39.50;;;;;;4933743;29;20031;-83
2022/03/27 15:54:58;;;;;;;5.43;3.50;;;23.90;40.40;;;;;;4934157;29;20032;-84
2022/03/27 15:57:23;;;;;;;3.92;3.08;;;24.30;40.20;;;;;;4933964;29;20043;-85
2022/03/27 15:59:49;;;;;;;6.18;3.60;;;22.00;43.60;;;;;;4934156;29;20079;-84
2022/03/27 16:02:15;;;;;;;4.53;3.25;;;20.60;47.00;;;;;;4934067;29;20039;-84
2022/03/27 16:04:41;;;;;;;3.85;3.35;;;20.70;48.70;;;;;;4934797;29;20310;-84
2022/03/27 16:07:07;;;;;;;4.32;3.15;;;20.60;49.30;;;;;;4933376;29;20047;-85
2022/03/27 16:09:34;;;;;;;4.63;3.88;;;20.10;49.60;;;;;;4934075;29;20031;-84
2022/03/27 16:11:59;;;;;;;5.93;3.80;;;19.80;50.70;;;;;;4940778;23;20592;-77
2022/03/27 16:14:25;;;;;;;4.45;3.47;;;20.00;50.80;;;;;;4896910;29;20099;-76
2022/03/27 16:16:52;;;;;;;4.97;3.78;;;19.60;51.30;;;;;;4912456;29;20386;-77
2022/03/27 16:19:18;;;;;;;5.05;3.72;;;19.40;51.50;;;;;;4898523;29;20036;-77
2022/03/27 16:21:45;;;;;;;6.93;4.30;;;19.40;52.50;;;;;;4914454;29;20046;-77
2022/03/27 16:24:11;;;;;;;8.13;4.43;;;19.20;53.10;;;;;;4913595;29;20071;-77
2022/03/27 16:26:39;;;;;;;6.97;4.00;;;18.30;55.20;;;;;;4913613;29;20064;-76
2022/03/27 16:29:05;;;;;;;5.93;4.18;;;17.80;57.20;;;;;;4913145;29;20086;-76
2022/03/27 16:31:30;;;;;;;7.13;4.28;;;17.50;59.60;;;;;;4913378;29;20601;-81
2022/03/27 16:33:56;;;;;;;7.45;4.22;;;17.70;58.90;;;;;;4908451;29;20028;-78
2022/03/27 16:36:22;;;;;;;7.45;4.90;;;17.50;59.10;;;;;;4909361;29;20076;-77
2022/03/27 16:38:48;;;;;;;5.72;4.25;;;17.10;60.70;;;;;;4908715;29;20036;-77
2022/03/27 16:41:13;;;;;;;8.80;5.30;;;17.40;61.00;;;;;;4909572;29;20060;-76
2022/03/27 16:43:39;;;;;;;6.68;5.10;;;16.60;61.60;;;;;;4909511;29;20477;-77
2022/03/27 16:46:05;;;;;;;6.03;4.43;;;16.20;63.40;;;;;;4892285;29;20485;-77
2022/03/27 16:48:32;;;;;;;7.00;4.72;;;16.20;64.00;;;;;;4907494;29;20549;-77
2022/03/27 16:50:58;;;;;;;8.43;5.28;;;15.90;65.00;;;;;;4906878;29;20039;-77
2022/03/27 16:53:24;;;;;;;8.07;5.47;;;16.00;64.80;;;;;;4907057;29;20040;-77
2022/03/27 16:55:49;;;;;;;9.05;5.75;;;15.80;64.80;;;;;;4907644;29;20031;-77
2022/03/27 16:58:15;;;;;;;10.82;5.95;;;15.40;66.40;;;;;;4908839;29;20509;-77
2022/03/27 17:00:43;;;;;;;9.23;6.22;;;15.10;67.40;;;;;;4909301;29;20548;-76
2022/03/27 17:03:08;;;;;;;7.20;5.22;;;15.20;68.00;;;;;;4892181;29;20043;-77
2022/03/27 17:05:34;;;;;;;9.23;5.55;;;15.50;67.70;;;;;;4909504;29;20032;-78
2022/03/27 17:08:00;;;;;;;8.65;4.97;;;15.40;66.70;;;;;;4909006;29;20040;-76
2022/03/27 17:10:26;;;;;;;8.80;4.68;;;15.50;66.70;;;;;;4923767;23;20056;-75
2022/03/27 17:12:52;;;;;;;6.22;4.22;;;15.80;65.40;;;;;;4898422;29;20043;-78
2022/03/27 17:15:18;;;;;;;6.13;4.35;;;15.90;64.80;;;;;;4900784;29;20044;-78
2022/03/27 17:17:44;;;;;;;7.53;4.20;;;16.50;63.90;;;;;;4888526;29;20485;-81
2022/03/27 17:20:12;;;;;;;8.32;4.60;;;17.00;62.00;;;;;;4884048;29;20052;-85
2022/03/27 17:22:38;;;;;;;8.30;4.78;;;17.10;61.10;;;;;;4884419;29;20016;-87
2022/03/27 17:25:06;;;;;;;6.80;4.60;;;16.60;63.10;;;;;;4882800;29;20037;-85
2022/03/27 17:27:33;;;;;;;6.93;4.20;;;17.00;62.60;;;;;;4886249;29;20032;-85
2022/03/27 17:29:59;;;;;;;8.75;4.22;;;16.60;62.60;;;;;;4881848;29;20073;-82
2022/03/27 17:32:26;;;;;;;11.05;5.00;;;15.30;65.80;;;;;;4886903;29;20116;-81
2022/03/27 17:34:52;;;;;;;7.18;4.38;;;14.60;69.00;;;;;;4882644;29;20036;-80
2022/03/27 17:37:19;;;;;;;7.65;3.97;;;14.10;71.60;;;;;;4883373;29;20040;-81
2022/03/27 17:39:46;;;;;;;5.80;4.38;;;13.70;73.10;;;;;;4892832;29;20093;-80
2022/03/27 17:42:12;;;;;;;7.60;5.00;;;13.30;75.70;;;;;;4898838;29;20024;-82
2022/03/27 17:44:38;;;;;;;7.88;4.90;;;12.90;77.30;;;;;;4880976;29;20095;-79
2022/03/27 17:47:05;;;;;;;9.55;5.18;;;12.60;78.90;;;;;;4890064;29;20032;-81
2022/03/27 17:49:31;;;;;;;9.10;5.80;;;12.40;80.10;;;;;;4890530;29;20029;-84
2022/03/27 17:51:56;;;;;;;10.75;5.40;;;12.20;81.10;;;;;;4897032;29;20088;-83
2022/03/27 17:54:23;;;;;;;8.52;5.40;;;12.10;82.50;;;;;;4898149;29;20438;-83
2022/03/27 17:56:49;;;;;;;7.63;5.07;;;11.90;83.30;;;;;;4897537;29;20272;-82
2022/03/27 17:59:15;;;;;;;9.40;6.20;;;11.70;84.10;;;;;;4899031;29;20157;-84
2022/03/27 18:01:41;;;;;;;8.43;5.78;;;11.50;85.40;;;;;;4898610;29;20506;-83
2022/03/27 18:04:07;;;;;;;8.55;5.85;;;11.40;86.40;;;;;;4898487;29;20036;-83
2022/03/27 18:06:34;;;;;;;10.43;6.25;;;11.20;86.60;;;;;;4898458;29;20382;-83
2022/03/27 18:08:59;;;;;;;11.30;6.75;;;11.10;87.60;;;;;;4898620;29;20032;-83
2022/03/27 19:10:59;;;;;;;14.73;9.50;;;9.10;95.50;;;;;;5787275;23;20096;-81
2022/03/27 19:13:24;;;;;;;15.60;8.82;;;9.20;95.00;;;;;;4915424;29;20036;-83
2022/03/27 19:15:51;;;;;;;17.15;10.25;;;9.30;95.20;;;;;;4899809;29;20028;-81
2022/03/27 19:18:20;;;;;;;16.23;10.52;;;9.40;95.00;;;;;;4915779;29;20039;-83
2022/03/27 19:20:54;;;;;;;21.02;10.38;;;9.50;95.00;;;;;;4916357;29;20497;-83
2022/03/27 19:23:20;;;;;;;15.27;9.77;;;9.50;95.00;;;;;;4914933;29;20036;-83
2022/03/27 19:25:46;;;;;;;18.38;10.40;;;9.50;94.80;;;;;;4915964;29;20032;-83
2022/03/27 19:28:13;;;;;;;17.27;10.73;;;9.60;94.80;;;;;;4915998;29;20048;-82
2022/03/27 19:30:40;;;;;;;18.33;10.00;;;9.60;94.50;;;;;;4916205;29;20028;-83
2022/03/27 19:33:07;;;;;;;19.05;11.50;;;9.60;94.70;;;;;;4913213;29;20036;-82
2022/03/27 19:35:34;;;;;;;21.17;11.43;;;9.70;94.40;;;;;;4916135;29;20024;-83
2022/03/27 19:37:59;;;;;;;19.08;10.38;;;9.60;94.60;;;;;;4916153;29;20548;-82
2022/03/27 19:40:25;;;;;;;19.55;10.10;;;9.60;94.70;;;;;;4915754;29;20124;-83
2022/03/27 19:42:51;;;;;;;16.08;9.95;;;9.60;94.70;;;;;;4914760;29;20020;-82
2022/03/27 19:45:20;;;;;;;17.35;11.00;;;9.60;94.20;;;;;;4915736;29;20031;-83
2022/03/27 19:47:46;;;;;;;16.70;10.27;;;9.70;94.40;;;;;;4910804;29;20139;-83
2022/03/27 19:50:12;;;;;;;18.17;10.35;;;9.70;94.50;;;;;;4914843;29;20469;-83
2022/03/27 19:52:39;;;;;;;17.58;10.80;;;9.70;94.20;;;;;;4915029;29;20043;-83
2022/03/27 19:55:07;;;;;;;22.60;11.13;;;9.70;94.50;;;;;;4914929;29;20036;-83
2022/03/27 19:57:33;;;;;;;18.42;11.75;;;9.70;94.20;;;;;;4914981;29;20082;-82
2022/03/27 19:59:59;;;;;;;20.15;11.60;;;9.70;94.20;;;;;;4915070;29;20040;-83
2022/03/27 20:02:25;;;;;;;19.52;11.48;;;9.60;94.40;;;;;;4917307;29;20040;-87
2022/03/27 20:04:50;;;;;;;21.58;11.73;;;9.60;94.40;;;;;;4915048;29;20021;-87
2022/03/27 20:07:16;;;;;;;21.00;12.02;;;9.50;94.40;;;;;;4913969;29;20043;-83
2022/03/27 20:09:42;;;;;;;16.17;9.52;;;9.50;94.40;;;;;;4912172;29;20028;-82
2022/03/27 21:11:41;;;;;;;17.58;8.32;;;8.60;94.50;;;;;;5514933;23;20082;-77
2022/03/27 21:14:07;;;;;;;18.88;8.77;;;8.50;94.80;;;;;;4911738;29;20047;-79
2022/03/27 21:16:32;;;;;;;16.95;9.70;;;8.40;95.00;;;;;;4923006;29;20103;-79
2022/03/27 21:18:58;;;;;;;14.75;8.07;;;8.30;95.40;;;;;;4928313;29;20358;-79
2022/03/27 21:21:24;;;;;;;18.33;8.77;;;8.20;95.10;;;;;;4927597;29;20043;-78
2022/03/27 21:23:53;;;;;;;19.98;9.73;;;8.10;95.40;;;;;;4921794;29;20671;-79
2022/03/27 21:26:19;;;;;;;21.05;9.80;;;8.00;95.80;;;;;;4924353;29;20090;-79
2022/03/27 21:28:45;;;;;;;18.75;9.75;;;7.90;96.10;;;;;;4906128;29;20063;-79
2022/03/27 21:31:11;;;;;;;16.63;9.55;;;7.80;96.60;;;;;;4922070;29;20046;-79
2022/03/27 21:33:37;;;;;;;19.08;9.95;;;7.70;96.30;;;;;;4921501;29;20523;-79
2022/03/27 21:36:03;;;;;;;21.80;10.60;;;7.60;96.40;;;;;;4920030;29;20058;-79
2022/03/27 21:38:29;;;;;;;26.03;11.20;;;7.50;96.80;;;;;;4919913;29;20540;-79
2022/03/27 21:40:58;;;;;;;20.67;10.60;;;7.40;96.90;;;;;;4917959;29;20039;-79
2022/03/27 21:43:24;;;;;;;25.50;11.50;;;7.30;97.00;;;;;;4917492;29;20107;-79
2022/03/27 21:45:50;;;;;;;21.90;12.05;;;7.20;97.40;;;;;;4917415;29;20095;-79
2022/03/27 21:48:16;;;;;;;26.17;12.60;;;7.10;97.50;;;;;;4916363;29;20027;-79
2022/03/27 21:50:42;;;;;;;26.10;11.97;;;7.10;97.90;;;;;;4898328;29;20051;-78
2022/03/27 21:53:08;;;;;;;22.75;11.43;;;7.00;98.00;;;;;;4913896;29;20157;-79